Terminal Aerodrome Forecast
Issued by NWS

Home | Current Version | Previous Version | Text Only | Print | Product List | Glossary On
Versions: 1 2 3 4 5 6 7 8 9 10 11 12
000
FTUS46 KLOX 162300 RRA
TAFPRB
TAF
KPRB 162351Z 1700/1724 29010KT P6SM SCT250
     FM171000 VRB03KT P6SM SKC
     FM172200 21012KT P6SM SCT100=

USA.gov is the U.S. government's official web portal to all federal, state and local government web resources and services.